Bohemia, Louisiana
Current Conditions -  °F | °C
As of 8:55 AM on Thursday 30 Oct 2014 (Local Time) from KNBG Reporting Station
Few Clouds Few Clouds  
Wind Chill: 65°   Ceiling: Unl
Heat Index: 65°   Visibility: 10mi
Dew Point: 45°   Wind: 9mph
Humidity: 48%   Direction: 30°NNE
Pressure: 30.11"   Gusts: NA
Location:  29.5781°N, 89.7956°W
Report Text: KNBG 301355Z 03008KT 10SM FEW250 18/07 A3011 RMK AO2 SLP194 T01830072 $
Loading
Personal Weather Stations






























Interactive Weather Map
Tropical Storm Tracking
New forecast layout! Learn more

10-Day Weather Forecast

Advertisements
Track Severe Weather on mobile